Latest Weather Observations for Cape Nelson

IDV60801

Issued at 3:02 pm EDT Thursday 29 January 2015 (issued every 30 minutes, with the page automatically refreshed every 10 minutes)

About weather observations | Map of weather stations | Latest weather observations for VIC | Other Formats
Station Details ID: 090184 Name: CAPE NELSON LIGHTHOUSE Lat: -38.43 Lon: 141.54 Height: 45.4 m
Data from the previous 72 hours. | See also: Recent months at Cape Nelson
Date/Time
EDT
Temp
°C
App
Temp
°C
Dew
Point
Rel
Hum
%
Delta-T
°C
Wind Press
QNH
hPa
Press
MSL
hPa
Rain
since 9 am
mm
Dir
 
Spd
km/h
Gust
km/h
Spd
kts
Gust
kts
29/03:00pm 19.6 16.6 12.6 64 3.9 ESE 20 32 11 17 1021.4 1021.3 0.0
29/02:30pm 19.0 15.8 13.0 68 3.4 SE 22 32 12 17 1021.5 1021.4 0.0
29/02:00pm 19.0 16.2 13.2 69 3.3 SE 20 32 11 17 1021.6 1021.5 0.0
29/01:30pm 18.5 15.2 12.9 70 3.2 SE 22 33 12 18 1021.8 1021.7 0.0
29/01:00pm 18.8 15.9 13.0 69 3.3 ESE 20 30 11 16 1022.2 1022.1 0.0
29/12:30pm 18.9 16.0 12.9 68 3.4 SE 20 30 11 16 1022.3 1022.2 0.0
29/12:00pm 18.9 16.2 12.9 68 3.4 ESE 19 28 10 15 1022.4 1022.3 0.0
29/11:30am 18.7 15.9 12.7 68 3.4 ESE 19 28 10 15 1022.4 1022.3 0.0
29/11:00am 18.3 15.5 12.5 69 3.2 ESE 19 28 10 15 1022.5 1022.4 0.0
29/10:30am 18.1 15.1 12.5 70 3.1 SE 20 28 11 15 1022.4 1022.3 0.0
29/10:00am 17.8 14.9 12.3 70 3.0 SE 19 30 10 16 1022.4 1022.3 0.0
29/09:30am 17.1 14.1 12.0 72 2.8 ESE 19 28 10 15 1022.5 1022.4 0.0
29/09:00am 17.1 14.0 11.6 70 3.0 SE 19 26 10 14 1022.3 1022.2 0.0
29/08:30am 16.7 13.7 11.8 73 2.7 SE 19 30 10 16 1022.1 1022.0 0.0
29/08:00am 16.0 12.7 11.0 72 2.7 SE 19 26 10 14 1021.9 1021.8 0.0
29/07:30am 15.7 12.6 11.7 77 2.2 SE 19 28 10 15 1021.6 1021.5 0.0
29/07:00am 15.1 12.4 11.7 80 1.8 SE 17 26 9 14 1021.3 1021.2 0.0
29/06:30am 15.0 11.9 11.6 80 1.8 SE 19 30 10 16 1021.0 1020.9 0.0
29/06:00am 15.0 11.9 11.6 80 1.8 ESE 19 28 10 15 1020.8 1020.7 0.0
29/05:30am 15.0 11.6 11.2 78 2.0 ESE 20 32 11 17 1020.6 1020.5 0.0
29/05:00am 15.1 11.8 11.5 79 1.9 ESE 20 32 11 17 1020.6 1020.5 0.0
29/04:30am 15.3 12.1 11.9 80 1.8 ESE 20 35 11 19 1020.7 1020.6 0.0
29/04:00am 15.2 12.0 12.0 81 1.7 ESE 20 32 11 17 1020.7 1020.6 0.0
29/03:30am 15.2 11.2 11.8 80 1.8 ESE 24 37 13 20 1020.8 1020.7 0.0
29/03:00am 15.0 11.0 11.8 81 1.7 ESE 24 37 13 20 1020.8 1020.7 0.0
29/02:30am 14.9 10.9 11.7 81 1.7 ESE 24 35 13 19 1020.9 1020.8 0.0
29/02:00am 15.0 10.6 11.6 80 1.8 ESE 26 37 14 20 1021.1 1021.0 0.0
29/01:30am 15.1 11.1 11.7 80 1.8 ESE 24 37 13 20 1021.3 1021.2 0.0
29/01:00am 15.2 11.2 11.8 80 1.8 ESE 24 41 13 22 1021.4 1021.3 0.0
29/12:30am 15.3 10.6 12.1 81 1.7 SE 28 43 15 23 1021.8 1021.7 0.0
29/12:00am 15.4 10.0 12.2 81 1.7 SE 32 44 17 24 1021.8 1021.7 0.0
 
Date/Time
EDT
Temp
°C
App
Temp
°C
Dew
Point
Rel
Hum
%
Delta-T
°C
Wind Press
QNH
hPa
Press
MSL
hPa
Rain
since 9 am
mm
Dir
 
Spd
km/h
Gust
km/h
Spd
kts
Gust
kts
28/11:45pm 15.5 10.9 12.4 82 1.7 ESE 28 46 15 25 1021.8 1021.7 0.0
28/11:30pm 15.5 10.0 12.3 81 1.8 SE 33 46 18 25 1021.8 1021.7 0.0
28/11:00pm 15.7 10.8 12.6 82 1.7 ESE 30 48 16 26 1021.8 1021.7 0.0
28/10:30pm 15.9 11.5 13.0 83 1.6 ESE 28 50 15 27 1021.8 1021.7 0.0
28/10:00pm 15.9 10.6 13.0 83 1.6 SE 33 52 18 28 1021.7 1021.6 0.0
28/09:34pm 16.3 11.9 14.0 86 1.3 ESE 30 50 16 27 1021.3 1021.2 0.0
28/09:30pm 16.2 11.7 13.7 85 1.4 ESE 30 46 16 25 1021.2 1021.1 0.0
28/09:06pm 16.3 11.2 13.8 85 1.4 SE 33 52 18 28 1021.2 1021.1 0.0
28/09:00pm 16.2 11.1 13.7 85 1.4 SE 33 48 18 26 1021.2 1021.1 0.0
28/08:34pm 16.9 12.3 13.6 81 1.9 ESE 30 48 16 26 1021.1 1021.0 0.0
28/08:30pm 16.6 11.4 12.9 79 2.1 ESE 32 48 17 26 1021.0 1020.9 0.0
28/08:00pm 16.9 12.0 12.6 76 2.4 SE 30 48 16 26 1020.8 1020.7 0.0
28/07:34pm 17.1 12.2 12.6 75 2.5 ESE 30 50 16 27 1020.6 1020.5 0.0
28/07:30pm 17.3 12.9 13.0 76 2.4 ESE 28 44 15 24 1020.6 1020.5 0.0
28/07:00pm 17.5 12.7 13.0 75 2.5 ESE 30 50 16 27 1020.2 1020.1 0.0
28/06:32pm 17.8 12.8 13.5 76 2.4 ESE 32 50 17 27 1020.2 1020.1 0.0
28/06:30pm 17.9 12.8 13.6 76 2.4 SE 33 50 18 27 1020.1 1020.0 0.0
28/06:00pm 17.9 12.9 13.4 75 2.5 ESE 32 52 17 28 1020.1 1020.0 0.0
28/05:39pm 18.0 12.8 13.5 75 2.6 ESE 33 52 18 28 1020.1 1020.0 0.0
28/05:30pm 18.2 12.7 13.7 75 2.6 SE 35 48 19 26 1020.0 1019.9 0.0
28/05:00pm 18.4 13.6 13.9 75 2.6 ESE 32 52 17 28 1020.0 1019.9 0.0
28/04:30pm 18.4 12.9 13.5 73 2.8 ESE 35 54 19 29 1019.9 1019.8 0.0
28/04:00pm 18.8 13.2 13.4 71 3.1 SE 35 54 19 29 1020.0 1019.9 0.0
28/03:58pm 18.9 13.5 14.0 73 2.8 SE 35 54 19 29 1020.0 1019.9 0.0
28/03:30pm 18.8 13.6 13.4 71 3.1 SE 33 48 18 26 1020.3 1020.2 0.0
28/03:23pm 18.9 13.9 13.3 70 3.2 SE 32 50 17 27 1020.3 1020.2 0.0
28/03:00pm 18.7 13.2 12.5 67 3.5 ESE 33 50 18 27 1020.1 1020.0 0.0
28/02:30pm 18.7 13.5 12.9 69 3.3 ESE 32 50 17 27 1020.4 1020.3 0.0
28/02:01pm 18.6 12.8 12.8 69 3.3 SE 35 54 19 29 1020.5 1020.4 0.0
28/02:00pm 18.8 13.2 13.2 70 3.2 SE 35 52 19 28 1020.4 1020.3 0.0
28/01:30pm 18.5 12.8 13.1 71 3.0 SE 35 52 19 28 1020.5 1020.4 0.0
28/01:00pm 18.9 13.9 13.5 71 3.1 SE 32 48 17 26 1020.8 1020.7 0.0
28/12:30pm 18.5 14.3 13.6 73 2.8 SE 28 39 15 21 1020.9 1020.8 0.0
28/12:00pm 18.2 13.5 13.3 73 2.8 SE 30 43 16 23 1021.1 1021.0 0.0
28/11:30am 18.1 13.3 13.0 72 2.9 SE 30 44 16 24 1021.1 1021.0 0.0
28/11:00am 16.5 11.1 12.8 79 2.0 SE 33 44 18 24 1021.1 1021.0 0.0
28/10:30am 16.6 10.4 12.6 77 2.2 SE 37 48 20 26 1020.9 1020.8 0.0
28/10:00am 15.8 9.7 11.8 77 2.2 SE 35 46 19 25 1021.1 1021.0 0.0
28/09:30am 15.6 9.4 11.4 76 2.3 SE 35 46 19 25 1020.9 1020.8 0.0
28/09:00am 15.5 9.5 10.7 73 2.5 SE 33 46 18 25 1020.7 1020.6 0.0
28/08:30am 15.5 9.5 10.9 74 2.5 SE 33 46 18 25 1020.4 1020.3 0.0
28/08:00am 15.5 8.8 9.8 69 3.0 SE 35 46 19 25 1020.0 1019.9 0.0
28/07:30am 15.2 8.8 10.6 74 2.4 SE 35 46 19 25 1019.8 1019.7 0.0
28/07:00am 15.3 8.9 10.7 74 2.4 SE 35 44 19 24 1019.4 1019.3 0.0
28/06:30am 15.1 9.6 9.2 68 3.0 SE 28 37 15 20 1019.2 1019.1 0.0
28/06:00am 14.8 8.5 9.8 72 2.6 SSE 33 46 18 25 1019.1 1019.0 0.0
28/05:30am 14.7 8.5 9.3 70 2.8 SE 32 41 17 22 1019.0 1018.9 0.0
28/05:00am 14.7 8.3 8.6 67 3.1 SE 32 46 17 25 1019.0 1018.9 0.0
28/04:30am 14.7 7.9 9.3 70 2.8 SE 35 48 19 26 1019.2 1019.1 0.0
28/04:01am 14.8 8.2 10.0 73 2.5 SE 35 54 19 29 1019.3 1019.2 0.0
28/04:00am 15.1 8.7 10.7 75 2.3 SE 35 48 19 26 1019.3 1019.2 0.0
28/03:30am 15.0 8.5 8.9 67 3.1 SE 33 46 18 25 1019.4 1019.3 0.0
28/03:00am 15.0 8.6 8.7 66 3.2 SE 32 50 17 27 1019.4 1019.3 0.0
28/02:46am 15.0 9.8 10.4 74 2.4 SE 28 46 15 25 1019.6 1019.5 0.0
28/02:30am 14.9 8.4 8.2 64 3.4 SE 32 44 17 24 1019.6 1019.5 0.0
28/02:00am 15.1 8.9 9.2 68 3.0 SE 32 46 17 25 1019.8 1019.7 0.0
28/01:33am 14.9 9.3 8.6 66 3.2 ESE 28 50 15 27 1019.9 1019.8 0.0
28/01:30am 15.0 9.9 9.1 68 3.0 ESE 26 39 14 21 1019.9 1019.8 0.0
28/01:00am 15.1 9.7 9.5 69 2.9 SE 28 43 15 23 1019.9 1019.8 0.0
28/12:36am 15.0 9.4 8.9 67 3.1 SE 28 46 15 25 1020.0 1019.9 0.0
28/12:30am 15.0 9.3 8.5 65 3.3 SE 28 41 15 22 1020.1 1020.0 0.0
28/12:00am 15.0 8.7 9.1 68 3.0 SE 32 43 17 23 1020.0 1019.9 0.0
 
Date/Time
EDT
Temp
°C
App
Temp
°C
Dew
Point
Rel
Hum
%
Delta-T
°C
Wind Press
QNH
hPa
Press
MSL
hPa
Rain
since 9 am
mm
Dir
 
Spd
km/h
Gust
km/h
Spd
kts
Gust
kts
27/11:30pm 14.9 8.7 9.3 69 2.9 SE 32 44 17 24 1020.1 1020.0 0.0
27/11:00pm 15.0 9.9 9.1 68 3.0 SE 26 39 14 21 1020.3 1020.2 0.0
27/10:30pm 14.9 9.5 9.5 70 2.8 SE 28 41 15 22 1020.3 1020.2 0.0
27/10:00pm 14.9 8.8 9.9 72 2.6 SE 32 43 17 23 1020.3 1020.2 0.0
27/09:30pm 14.7 8.0 9.7 72 2.6 SE 35 43 19 23 1020.2 1020.1 0.0
27/09:00pm 14.7 8.4 9.7 72 2.6 SSE 33 44 18 24 1020.0 1019.9 0.0
27/08:30pm 14.8 8.7 9.6 71 2.7 SE 32 41 17 22 1019.8 1019.7 0.0
27/08:00pm 15.0 8.3 9.6 70 2.8 SSE 35 46 19 25 1019.7 1019.6 0.0
27/07:30pm 14.9 8.6 8.8 67 3.1 SSE 32 41 17 22 1019.5 1019.4 0.0
27/07:00pm 15.8 9.2 8.5 62 3.7 SSE 33 44 18 24 1019.4 1019.3 0.0
27/06:30pm 16.3 10.2 9.7 65 3.5 SSE 32 41 17 22 1019.1 1019.0 0.0
27/06:00pm 16.6 10.2 9.5 63 3.7 SE 33 41 18 22 1019.1 1019.0 0.0
27/05:30pm 16.4 11.2 10.3 67 3.2 SSE 28 39 15 21 1019.1 1019.0 0.0
27/05:00pm 16.3 10.2 9.7 65 3.4 SSE 32 41 17 22 1019.0 1018.9 0.0
27/04:30pm 16.8 10.6 9.5 62 3.8 SSE 32 39 17 21 1019.2 1019.1 0.0
27/04:00pm 15.8 9.8 8.5 62 3.7 SSE 30 39 16 21 1019.4 1019.3 0.0
27/03:30pm 15.6 10.1 9.1 65 3.3 SSE 28 43 15 23 1019.4 1019.3 0.0
27/03:00pm 15.9 9.2 9.8 67 3.2 SSE 35 44 19 24 1019.3 1019.2 0.0
27/02:30pm 16.9 11.7 10.1 64 3.6 SSE 28 35 15 19 1019.2 1019.1 0.0
27/02:00pm 17.4 13.2 9.6 60 4.1 SSE 22 30 12 16 1019.5 1019.4 0.0
27/01:30pm 17.6 13.2 9.0 57 4.5 SSE 22 30 12 16 1019.6 1019.5 0.0
27/01:00pm 17.3 12.5 9.0 58 4.3 SSE 24 32 13 17 1019.6 1019.5 0.0
27/12:30pm 17.0 11.4 8.9 59 4.2 SSE 28 33 15 18 1019.7 1019.6 0.0
27/12:00pm 16.5 11.5 9.4 63 3.7 SSE 26 32 14 17 1019.8 1019.7 0.0
27/11:30am 15.8 11.2 9.7 67 3.2 S 24 32 13 17 1019.7 1019.6 0.0
27/11:00am 16.1 11.6 10.0 67 3.2 S 24 30 13 16 1019.8 1019.7 0.0
27/10:30am 15.3 10.8 9.9 70 2.8 S 24 32 13 17 1019.6 1019.5 0.0
27/10:00am 15.2 11.4 9.8 70 2.8 SSE 20 26 11 14 1019.5 1019.4 0.0
27/09:30am 14.8 10.9 9.4 70 2.8 SSE 20 26 11 14 1019.6 1019.5 0.0
27/09:00am 14.3 10.5 8.9 70 2.7 SSE 19 26 10 14 1019.4 1019.3 0.0
27/08:30am 14.0 8.5 9.0 72 2.5 S 28 33 15 18 1019.1 1019.0 0.0
27/08:00am 14.2 10.3 9.6 74 2.4 S 20 28 11 15 1018.7 1018.6 0.0
27/07:30am 13.9 9.9 9.1 73 2.4 S 20 32 11 17 1018.4 1018.3 0.0
27/07:00am 13.7 9.0 9.2 74 2.3 S 24 32 13 17 1018.1 1018.0 0.0
27/06:30am 13.8 9.2 9.5 75 2.2 S 24 33 13 18 1017.8 1017.7 0.0
27/06:00am 14.2 10.0 9.6 74 2.4 S 22 32 12 17 1017.7 1017.6 0.0
27/05:30am 14.0 10.8 8.6 70 2.7 S 15 22 8 12 1017.7 1017.6 0.0
27/05:00am 13.8 10.4 7.8 67 3.0 S 15 20 8 11 1017.8 1017.7 0.0
27/04:30am 13.7 9.9 7.5 66 3.0 SSE 17 22 9 12 1017.8 1017.7 0.0
27/04:00am 13.8 9.9 7.3 65 3.2 S 17 22 9 12 1018.0 1017.9 0.0
27/03:30am 13.8 9.9 7.3 65 3.2 S 17 22 9 12 1018.2 1018.1 0.0
27/03:00am 13.7 10.7 7.5 66 3.0 S 13 19 7 10 1018.2 1018.1 0.0
27/02:30am 13.6 10.5 7.2 65 3.1 S 13 19 7 10 1018.2 1018.1 0.0
27/02:00am 13.6 10.1 7.2 65 3.1 S 15 20 8 11 1018.3 1018.2 0.0
27/01:30am 13.7 10.7 7.5 66 3.0 S 13 19 7 10 1018.5 1018.4 0.0
27/01:00am 13.7 10.7 7.7 67 3.0 S 13 19 7 10 1018.6 1018.5 0.0
27/12:30am 13.7 10.5 7.0 64 3.3 S 13 19 7 10 1018.8 1018.7 0.0
27/12:00am 13.6 11.0 7.6 67 2.9 S 11 17 6 9 1018.9 1018.8 0.0
 
Date/Time
EDT
Temp
°C
App
Temp
°C
Dew
Point
Rel
Hum
%
Delta-T
°C
Wind Press
QNH
hPa
Press
MSL
hPa
Rain
since 9 am
mm
Dir
 
Spd
km/h
Gust
km/h
Spd
kts
Gust
kts
26/11:30pm 13.7 10.7 7.5 66 3.0 S 13 17 7 9 1019.1 1019.0 0.0
26/11:00pm 13.6 10.5 7.4 66 3.0 SSE 13 17 7 9 1019.4 1019.3 0.0
26/10:30pm 13.7 11.0 7.5 66 3.0 S 11 17 6 9 1019.5 1019.4 0.0
26/10:00pm 13.9 10.4 7.0 63 3.4 SSE 15 20 8 11 1019.4 1019.3 0.0
26/09:30pm 14.0 10.9 7.1 63 3.4 S 13 20 7 11 1019.3 1019.2 0.0
26/09:00pm 14.2 10.7 7.3 63 3.4 S 15 22 8 12 1019.0 1018.9 0.0
26/08:30pm 14.6 10.9 7.9 64 3.3 S 17 22 9 12 1018.7 1018.6 0.0
26/08:00pm 14.9 10.9 8.2 64 3.4 S 19 26 10 14 1018.6 1018.5 0.0
26/07:30pm 15.5 11.6 8.5 63 3.6 S 19 26 10 14 1018.3 1018.2 0.0
26/07:00pm 15.6 11.4 8.4 62 3.6 S 20 28 11 15 1018.1 1018.0 0.0
26/06:30pm 16.0 11.8 8.2 60 4.0 S 20 30 11 16 1018.1 1018.0 0.0
26/06:00pm 15.7 11.9 8.9 64 3.5 S 19 28 10 15 1018.1 1018.0 0.0
26/05:30pm 15.5 11.6 8.5 63 3.6 S 19 24 10 13 1018.2 1018.1 0.0
26/05:00pm 15.3 10.8 8.5 64 3.4 S 22 30 12 16 1018.3 1018.2 0.0
26/04:30pm 15.5 10.3 8.7 64 3.5 S 26 32 14 17 1018.3 1018.2 0.0
26/04:00pm 15.9 10.3 10.0 68 3.1 S 30 39 16 21 1018.4 1018.3 0.0
26/03:30pm 17.9 14.2 9.3 57 4.5 S 19 24 10 13 1018.3 1018.2 0.0

Other Formats:

Comma delimited format used in spreadsheet applications
http://www.bom.gov.au/fwo/IDV60801/IDV60801.94826.axf

JavaScript Object Notation format (JSON) in row-major order
http://www.bom.gov.au/fwo/IDV60801/IDV60801.94826.json